sensor_id;sensor_type;location;lat;lon;timestamp;P1;durP1;ratioP1;P2;durP2;ratioP2
64210;SDS011;50528;48.514;14.394;2023-04-24T00:00:04;7.40;;;4.50;;
64210;SDS011;50528;48.514;14.394;2023-04-24T00:00:58;6.20;;;4.70;;
64210;SDS011;50528;48.514;14.394;2023-04-24T00:01:34;5.30;;;4.50;;
64210;SDS011;50528;48.514;14.394;2023-04-24T00:02:12;5.10;;;4.20;;
64210;SDS011;50528;48.514;14.394;2023-04-24T00:02:45;5.50;;;4.20;;
64210;SDS011;50528;48.514;14.394;2023-04-24T00:03:20;5.80;;;4.00;;
64210;SDS011;50528;48.514;14.394;2023-04-24T00:03:55;5.40;;;4.30;;
64210;SDS011;50528;48.514;14.394;2023-04-24T00:04:32;6.20;;;4.50;;
64210;SDS011;50528;48.514;14.394;2023-04-24T00:05:06;5.70;;;4.20;;
64210;SDS011;50528;48.514;14.394;2023-04-24T00:05:40;5.90;;;4.20;;
64210;SDS011;50528;48.514;14.394;2023-04-24T00:06:14;6.50;;;4.10;;
64210;SDS011;50528;48.514;14.394;2023-04-24T00:06:49;6.50;;;4.60;;
64210;SDS011;50528;48.514;14.394;2023-04-24T00:07:26;5.40;;;4.60;;
64210;SDS011;50528;48.514;14.394;2023-04-24T00:08:00;5.20;;;3.90;;
64210;SDS011;50528;48.514;14.394;2023-04-24T00:08:34;6.60;;;4.20;;
64210;SDS011;50528;48.514;14.394;2023-04-24T00:09:09;5.60;;;4.60;;
64210;SDS011;50528;48.514;14.394;2023-04-24T00:09:43;4.70;;;4.00;;
64210;SDS011;50528;48.514;14.394;2023-04-24T00:10:17;7.00;;;4.10;;
64210;SDS011;50528;48.514;14.394;2023-04-24T00:10:50;6.40;;;4.30;;
64210;SDS011;50528;48.514;14.394;2023-04-24T00:11:25;5.80;;;4.10;;
64210;SDS011;50528;48.514;14.394;2023-04-24T00:11:58;7.70;;;4.10;;
64210;SDS011;50528;48.514;14.394;2023-04-24T00:12:32;5.70;;;4.00;;
64210;SDS011;50528;48.514;14.394;2023-04-24T00:13:06;5.50;;;4.30;;
64210;SDS011;50528;48.514;14.394;2023-04-24T00:13:39;4.60;;;4.10;;
64210;SDS011;50528;48.514;14.394;2023-04-24T00:14:13;5.80;;;4.30;;
64210;SDS011;50528;48.514;14.394;2023-04-24T00:14:46;6.20;;;4.30;;
64210;SDS011;50528;48.514;14.394;2023-04-24T00:15:23;5.90;;;4.10;;
64210;SDS011;50528;48.514;14.394;2023-04-24T00:16:00;5.90;;;4.50;;
64210;SDS011;50528;48.514;14.394;2023-04-24T00:16:34;5.70;;;4.60;;
64210;SDS011;50528;48.514;14.394;2023-04-24T00:17:07;7.90;;;4.60;;
64210;SDS011;50528;48.514;14.394;2023-04-24T00:17:41;6.70;;;4.40;;
64210;SDS011;50528;48.514;14.394;2023-04-24T00:18:14;6.60;;;5.00;;
64210;SDS011;50528;48.514;14.394;2023-04-24T00:18:48;4.90;;;4.30;;
64210;SDS011;50528;48.514;14.394;2023-04-24T00:19:22;6.30;;;5.00;;
64210;SDS011;50528;48.514;14.394;2023-04-24T00:19:55;5.30;;;4.60;;
64210;SDS011;50528;48.514;14.394;2023-04-24T00:20:31;6.80;;;5.10;;
64210;SDS011;50528;48.514;14.394;2023-04-24T00:21:08;5.70;;;4.80;;
64210;SDS011;50528;48.514;14.394;2023-04-24T00:21:42;6.30;;;4.80;;
64210;SDS011;50528;48.514;14.394;2023-04-24T00:22:15;5.90;;;4.70;;
64210;SDS011;50528;48.514;14.394;2023-04-24T00:22:48;5.00;;;4.10;;
64210;SDS011;50528;48.514;14.394;2023-04-24T00:23:22;5.70;;;4.90;;
64210;SDS011;50528;48.514;14.394;2023-04-24T00:23:55;6.30;;;4.90;;
64210;SDS011;50528;48.514;14.394;2023-04-24T00:24:28;6.20;;;4.60;;
64210;SDS011;50528;48.514;14.394;2023-04-24T00:25:02;6.60;;;5.00;;
64210;SDS011;50528;48.514;14.394;2023-04-24T00:25:36;6.70;;;4.70;;
64210;SDS011;50528;48.514;14.394;2023-04-24T00:26:09;5.80;;;4.80;;
64210;SDS011;50528;48.514;14.394;2023-04-24T00:26:43;5.80;;;4.30;;
64210;SDS011;50528;48.514;14.394;2023-04-24T00:27:16;5.60;;;4.80;;
64210;SDS011;50528;48.514;14.394;2023-04-24T00:27:50;6.70;;;4.90;;
64210;SDS011;50528;48.514;14.394;2023-04-24T00:28:23;5.80;;;5.00;;
64210;SDS011;50528;48.514;14.394;2023-04-24T00:28:57;5.80;;;4.70;;
64210;SDS011;50528;48.514;14.394;2023-04-24T00:29:31;7.50;;;4.50;;
64210;SDS011;50528;48.514;14.394;2023-04-24T00:30:05;7.30;;;4.60;;
64210;SDS011;50528;48.514;14.394;2023-04-24T00:30:39;7.00;;;4.50;;
64210;SDS011;50528;48.514;14.394;2023-04-24T00:31:13;5.70;;;4.30;;
64210;SDS011;50528;48.514;14.394;2023-04-24T00:31:46;6.50;;;4.40;;
64210;SDS011;50528;48.514;14.394;2023-04-24T00:32:20;7.00;;;4.70;;
64210;SDS011;50528;48.514;14.394;2023-04-24T00:32:54;5.90;;;4.80;;
64210;SDS011;50528;48.514;14.394;2023-04-24T00:33:28;6.40;;;4.40;;
64210;SDS011;50528;48.514;14.394;2023-04-24T00:34:03;6.20;;;4.60;;
64210;SDS011;50528;48.514;14.394;2023-04-24T00:34:37;5.30;;;4.30;;
64210;SDS011;50528;48.514;14.394;2023-04-24T00:35:11;5.30;;;4.50;;
64210;SDS011;50528;48.514;14.394;2023-04-24T00:35:44;5.60;;;4.30;;
64210;SDS011;50528;48.514;14.394;2023-04-24T00:36:17;6.10;;;4.30;;
64210;SDS011;50528;48.514;14.394;2023-04-24T00:36:53;4.80;;;4.20;;
64210;SDS011;50528;48.514;14.394;2023-04-24T00:37:27;5.30;;;4.40;;
64210;SDS011;50528;48.514;14.394;2023-04-24T00:38:01;6.20;;;4.20;;
64210;SDS011;50528;48.514;14.394;2023-04-24T00:38:35;6.90;;;4.50;;
64210;SDS011;50528;48.514;14.394;2023-04-24T00:39:09;5.40;;;4.10;;
64210;SDS011;50528;48.514;14.394;2023-04-24T00:39:42;4.90;;;4.10;;
64210;SDS011;50528;48.514;14.394;2023-04-24T00:40:17;5.90;;;4.30;;
64210;SDS011;50528;48.514;14.394;2023-04-24T00:40:50;5.50;;;4.00;;
64210;SDS011;50528;48.514;14.394;2023-04-24T00:41:24;4.60;;;3.90;;
64210;SDS011;50528;48.514;14.394;2023-04-24T00:41:58;5.30;;;3.90;;
64210;SDS011;50528;48.514;14.394;2023-04-24T00:42:32;5.00;;;3.90;;
64210;SDS011;50528;48.514;14.394;2023-04-24T00:43:06;5.60;;;3.90;;
64210;SDS011;50528;48.514;14.394;2023-04-24T00:43:42;4.60;;;3.70;;
64210;SDS011;50528;48.514;14.394;2023-04-24T00:44:15;6.60;;;4.00;;
64210;SDS011;50528;48.514;14.394;2023-04-24T00:44:49;7.80;;;3.90;;
64210;SDS011;50528;48.514;14.394;2023-04-24T00:45:23;5.40;;;3.90;;
64210;SDS011;50528;48.514;14.394;2023-04-24T00:45:56;5.10;;;3.80;;
64210;SDS011;50528;48.514;14.394;2023-04-24T00:46:30;5.10;;;3.90;;
64210;SDS011;50528;48.514;14.394;2023-04-24T00:47:04;5.70;;;3.80;;
64210;SDS011;50528;48.514;14.394;2023-04-24T00:47:39;5.90;;;4.00;;
64210;SDS011;50528;48.514;14.394;2023-04-24T00:48:12;4.80;;;3.80;;
64210;SDS011;50528;48.514;14.394;2023-04-24T00:48:46;4.90;;;4.00;;
64210;SDS011;50528;48.514;14.394;2023-04-24T00:49:19;4.70;;;3.50;;
64210;SDS011;50528;48.514;14.394;2023-04-24T00:49:56;5.10;;;3.60;;
64210;SDS011;50528;48.514;14.394;2023-04-24T00:50:29;4.60;;;3.60;;
64210;SDS011;50528;48.514;14.394;2023-04-24T00:51:03;5.60;;;3.80;;
64210;SDS011;50528;48.514;14.394;2023-04-24T00:51:37;4.70;;;3.90;;
64210;SDS011;50528;48.514;14.394;2023-04-24T00:52:10;4.60;;;3.70;;
64210;SDS011;50528;48.514;14.394;2023-04-24T00:52:45;4.20;;;3.50;;
64210;SDS011;50528;48.514;14.394;2023-04-24T00:53:19;4.80;;;3.70;;
64210;SDS011;50528;48.514;14.394;2023-04-24T00:53:52;4.90;;;3.70;;
64210;SDS011;50528;48.514;14.394;2023-04-24T00:54:26;4.30;;;3.80;;
64210;SDS011;50528;48.514;14.394;2023-04-24T00:54:59;5.00;;;3.90;;
64210;SDS011;50528;48.514;14.394;2023-04-24T00:55:33;4.60;;;3.70;;
64210;SDS011;50528;48.514;14.394;2023-04-24T00:56:06;5.30;;;3.90;;
64210;SDS011;50528;48.514;14.394;2023-04-24T00:56:41;5.20;;;4.00;;
64210;SDS011;50528;48.514;14.394;2023-04-24T00:57:15;5.80;;;3.80;;
64210;SDS011;50528;48.514;14.394;2023-04-24T00:57:49;5.70;;;4.00;;
64210;SDS011;50528;48.514;14.394;2023-04-24T00:58:23;4.30;;;3.50;;
64210;SDS011;50528;48.514;14.394;2023-04-24T00:58:57;4.20;;;3.50;;
64210;SDS011;50528;48.514;14.394;2023-04-24T00:59:31;5.90;;;3.70;;
64210;SDS011;50528;48.514;14.394;2023-04-24T01:00:05;4.60;;;3.80;;
64210;SDS011;50528;48.514;14.394;2023-04-24T01:00:44;4.60;;;3.70;;
64210;SDS011;50528;48.514;14.394;2023-04-24T01:01:19;4.80;;;3.50;;
64210;SDS011;50528;48.514;14.394;2023-04-24T01:01:56;5.80;;;3.80;;
64210;SDS011;50528;48.514;14.394;2023-04-24T01:02:31;5.10;;;3.40;;
64210;SDS011;50528;48.514;14.394;2023-04-24T01:03:07;4.30;;;3.40;;
64210;SDS011;50528;48.514;14.394;2023-04-24T01:03:41;4.50;;;3.70;;
64210;SDS011;50528;48.514;14.394;2023-04-24T01:04:15;4.30;;;3.40;;
64210;SDS011;50528;48.514;14.394;2023-04-24T01:04:51;4.10;;;3.10;;
64210;SDS011;50528;48.514;14.394;2023-04-24T01:05:24;6.30;;;3.40;;
64210;SDS011;50528;48.514;14.394;2023-04-24T01:05:59;3.90;;;3.40;;
64210;SDS011;50528;48.514;14.394;2023-04-24T01:06:33;4.50;;;3.60;;
64210;SDS011;50528;48.514;14.394;2023-04-24T01:07:08;4.10;;;3.10;;
64210;SDS011;50528;48.514;14.394;2023-04-24T01:07:43;5.10;;;3.40;;
64210;SDS011;50528;48.514;14.394;2023-04-24T01:08:20;4.20;;;3.10;;
64210;SDS011;50528;48.514;14.394;2023-04-24T01:08:57;3.90;;;2.90;;
64210;SDS011;50528;48.514;14.394;2023-04-24T01:09:33;5.00;;;3.00;;
64210;SDS011;50528;48.514;14.394;2023-04-24T01:10:07;4.00;;;3.10;;
64210;SDS011;50528;48.514;14.394;2023-04-24T01:10:41;4.20;;;3.00;;
64210;SDS011;50528;48.514;14.394;2023-04-24T01:11:19;4.10;;;2.90;;
64210;SDS011;50528;48.514;14.394;2023-04-24T01:11:52;6.70;;;3.00;;
64210;SDS011;50528;48.514;14.394;2023-04-24T01:12:26;5.20;;;3.20;;
64210;SDS011;50528;48.514;14.394;2023-04-24T01:13:00;3.90;;;3.10;;
64210;SDS011;50528;48.514;14.394;2023-04-24T01:13:34;3.80;;;3.00;;
64210;SDS011;50528;48.514;14.394;2023-04-24T01:14:08;4.60;;;3.00;;
64210;SDS011;50528;48.514;14.394;2023-04-24T01:14:42;5.90;;;3.40;;
64210;SDS011;50528;48.514;14.394;2023-04-24T01:15:16;4.50;;;3.00;;
64210;SDS011;50528;48.514;14.394;2023-04-24T01:15:49;3.40;;;2.90;;
64210;SDS011;50528;48.514;14.394;2023-04-24T01:16:23;3.90;;;3.10;;
64210;SDS011;50528;48.514;14.394;2023-04-24T01:16:56;4.50;;;3.00;;
64210;SDS011;50528;48.514;14.394;2023-04-24T01:17:30;4.20;;;3.00;;
64210;SDS011;50528;48.514;14.394;2023-04-24T01:18:04;3.80;;;3.10;;
64210;SDS011;50528;48.514;14.394;2023-04-24T01:18:38;4.20;;;3.30;;
64210;SDS011;50528;48.514;14.394;2023-04-24T01:19:11;6.00;;;3.40;;
64210;SDS011;50528;48.514;14.394;2023-04-24T01:19:48;4.40;;;3.10;;
64210;SDS011;50528;48.514;14.394;2023-04-24T01:20:21;4.60;;;3.10;;
64210;SDS011;50528;48.514;14.394;2023-04-24T01:20:58;5.00;;;3.10;;
64210;SDS011;50528;48.514;14.394;2023-04-24T01:21:34;4.20;;;3.00;;
64210;SDS011;50528;48.514;14.394;2023-04-24T01:22:13;5.80;;;3.10;;
64210;SDS011;50528;48.514;14.394;2023-04-24T01:22:47;3.60;;;2.90;;
64210;SDS011;50528;48.514;14.394;2023-04-24T01:23:21;5.20;;;3.10;;
64210;SDS011;50528;48.514;14.394;2023-04-24T01:23:56;4.70;;;3.10;;
64210;SDS011;50528;48.514;14.394;2023-04-24T01:24:29;4.50;;;3.50;;
64210;SDS011;50528;48.514;14.394;2023-04-24T01:25:03;6.40;;;3.50;;
64210;SDS011;50528;48.514;14.394;2023-04-24T01:25:37;4.80;;;3.50;;
64210;SDS011;50528;48.514;14.394;2023-04-24T01:26:13;4.50;;;3.40;;
64210;SDS011;50528;48.514;14.394;2023-04-24T01:26:50;3.90;;;3.30;;
64210;SDS011;50528;48.514;14.394;2023-04-24T01:27:24;4.90;;;2.90;;
64210;SDS011;50528;48.514;14.394;2023-04-24T01:27:57;3.80;;;3.00;;
64210;SDS011;50528;48.514;14.394;2023-04-24T01:28:31;3.60;;;2.90;;
64210;SDS011;50528;48.514;14.394;2023-04-24T01:29:05;6.40;;;3.30;;
64210;SDS011;50528;48.514;14.394;2023-04-24T01:29:39;4.90;;;3.30;;
64210;SDS011;50528;48.514;14.394;2023-04-24T01:30:15;4.10;;;3.20;;
64210;SDS011;50528;48.514;14.394;2023-04-24T01:30:48;4.20;;;3.30;;
64210;SDS011;50528;48.514;14.394;2023-04-24T01:31:22;3.70;;;3.10;;
64210;SDS011;50528;48.514;14.394;2023-04-24T01:31:56;3.70;;;2.90;;
64210;SDS011;50528;48.514;14.394;2023-04-24T01:32:31;3.80;;;3.10;;
64210;SDS011;50528;48.514;14.394;2023-04-24T01:33:05;4.00;;;3.40;;
64210;SDS011;50528;48.514;14.394;2023-04-24T01:33:38;4.30;;;3.20;;
64210;SDS011;50528;48.514;14.394;2023-04-24T01:34:13;4.20;;;3.20;;
64210;SDS011;50528;48.514;14.394;2023-04-24T01:34:47;3.90;;;3.30;;
64210;SDS011;50528;48.514;14.394;2023-04-24T01:35:21;4.10;;;3.30;;
64210;SDS011;50528;48.514;14.394;2023-04-24T01:35:55;4.10;;;3.20;;
64210;SDS011;50528;48.514;14.394;2023-04-24T01:36:28;5.50;;;3.10;;
64210;SDS011;50528;48.514;14.394;2023-04-24T01:37:04;3.60;;;3.10;;
64210;SDS011;50528;48.514;14.394;2023-04-24T01:37:38;4.10;;;2.80;;
64210;SDS011;50528;48.514;14.394;2023-04-24T01:38:11;3.80;;;2.80;;
64210;SDS011;50528;48.514;14.394;2023-04-24T01:38:45;3.40;;;2.50;;
64210;SDS011;50528;48.514;14.394;2023-04-24T01:39:18;3.90;;;2.80;;
64210;SDS011;50528;48.514;14.394;2023-04-24T01:39:53;3.50;;;2.60;;
64210;SDS011;50528;48.514;14.394;2023-04-24T01:40:27;3.90;;;2.50;;
64210;SDS011;50528;48.514;14.394;2023-04-24T01:41:03;3.60;;;2.60;;
64210;SDS011;50528;48.514;14.394;2023-04-24T01:41:36;3.90;;;2.40;;
64210;SDS011;50528;48.514;14.394;2023-04-24T01:42:10;4.10;;;2.70;;
64210;SDS011;50528;48.514;14.394;2023-04-24T01:42:45;3.30;;;2.60;;
64210;SDS011;50528;48.514;14.394;2023-04-24T01:43:20;3.40;;;2.60;;
64210;SDS011;50528;48.514;14.394;2023-04-24T01:43:53;3.30;;;2.50;;
64210;SDS011;50528;48.514;14.394;2023-04-24T01:44:28;3.90;;;2.40;;
64210;SDS011;50528;48.514;14.394;2023-04-24T01:45:02;3.20;;;2.30;;
64210;SDS011;50528;48.514;14.394;2023-04-24T01:45:38;3.20;;;2.40;;
64210;SDS011;50528;48.514;14.394;2023-04-24T01:46:12;3.20;;;2.40;;
64210;SDS011;50528;48.514;14.394;2023-04-24T01:46:45;4.40;;;2.00;;
64210;SDS011;50528;48.514;14.394;2023-04-24T01:47:19;2.90;;;2.20;;
64210;SDS011;50528;48.514;14.394;2023-04-24T01:47:52;2.80;;;2.10;;
64210;SDS011;50528;48.514;14.394;2023-04-24T01:48:26;3.60;;;2.20;;
64210;SDS011;50528;48.514;14.394;2023-04-24T01:49:00;2.50;;;1.80;;
64210;SDS011;50528;48.514;14.394;2023-04-24T01:51:17;2.50;;;1.30;;
64210;SDS011;50528;48.514;14.394;2023-04-24T01:51:51;2.10;;;1.40;;
64210;SDS011;50528;48.514;14.394;2023-04-24T01:52:24;2.20;;;1.20;;
64210;SDS011;50528;48.514;14.394;2023-04-24T01:52:59;3.60;;;1.50;;
64210;SDS011;50528;48.514;14.394;2023-04-24T01:53:33;2.40;;;1.40;;
64210;SDS011;50528;48.514;14.394;2023-04-24T01:54:08;3.00;;;1.40;;
64210;SDS011;50528;48.514;14.394;2023-04-24T01:54:41;3.40;;;1.50;;
64210;SDS011;50528;48.514;14.394;2023-04-24T01:55:15;2.40;;;1.30;;
64210;SDS011;50528;48.514;14.394;2023-04-24T01:55:50;2.60;;;1.50;;
64210;SDS011;50528;48.514;14.394;2023-04-24T01:56:24;2.20;;;1.30;;
64210;SDS011;50528;48.514;14.394;2023-04-24T01:56:58;2.00;;;1.30;;
64210;SDS011;50528;48.514;14.394;2023-04-24T01:57:34;2.90;;;1.30;;
64210;SDS011;50528;48.514;14.394;2023-04-24T01:58:08;3.00;;;1.30;;
64210;SDS011;50528;48.514;14.394;2023-04-24T01:58:42;2.40;;;1.40;;
64210;SDS011;50528;48.514;14.394;2023-04-24T01:59:16;2.00;;;1.40;;
64210;SDS011;50528;48.514;14.394;2023-04-24T01:59:50;2.20;;;1.20;;
64210;SDS011;50528;48.514;14.394;2023-04-24T02:00:24;2.30;;;1.30;;
64210;SDS011;50528;48.514;14.394;2023-04-24T02:00:58;2.90;;;1.40;;
64210;SDS011;50528;48.514;14.394;2023-04-24T02:01:36;2.40;;;1.20;;
64210;SDS011;50528;48.514;14.394;2023-04-24T02:02:10;3.10;;;1.30;;
64210;SDS011;50528;48.514;14.394;2023-04-24T02:02:44;2.30;;;1.30;;
64210;SDS011;50528;48.514;14.394;2023-04-24T02:03:20;3.40;;;1.30;;
64210;SDS011;50528;48.514;14.394;2023-04-24T02:03:54;2.70;;;1.20;;
64210;SDS011;50528;48.514;14.394;2023-04-24T02:04:27;2.60;;;1.50;;
64210;SDS011;50528;48.514;14.394;2023-04-24T02:05:01;2.70;;;1.40;;
64210;SDS011;50528;48.514;14.394;2023-04-24T02:05:35;2.90;;;1.30;;
64210;SDS011;50528;48.514;14.394;2023-04-24T02:06:09;2.60;;;1.40;;
64210;SDS011;50528;48.514;14.394;2023-04-24T02:06:42;1.90;;;1.20;;
64210;SDS011;50528;48.514;14.394;2023-04-24T02:07:16;2.00;;;1.20;;
64210;SDS011;50528;48.514;14.394;2023-04-24T02:07:49;2.10;;;1.40;;
64210;SDS011;50528;48.514;14.394;2023-04-24T02:08:22;2.30;;;1.30;;
64210;SDS011;50528;48.514;14.394;2023-04-24T02:08:59;2.90;;;1.30;;
64210;SDS011;50528;48.514;14.394;2023-04-24T02:09:33;2.80;;;1.30;;
64210;SDS011;50528;48.514;14.394;2023-04-24T02:10:07;2.20;;;1.30;;
64210;SDS011;50528;48.514;14.394;2023-04-24T02:10:40;2.00;;;1.20;;
64210;SDS011;50528;48.514;14.394;2023-04-24T02:11:14;2.00;;;1.20;;
64210;SDS011;50528;48.514;14.394;2023-04-24T02:11:47;2.20;;;1.30;;
64210;SDS011;50528;48.514;14.394;2023-04-24T02:12:20;2.70;;;1.40;;
64210;SDS011;50528;48.514;14.394;2023-04-24T02:12:56;2.20;;;1.40;;
64210;SDS011;50528;48.514;14.394;2023-04-24T02:13:32;2.30;;;1.30;;
64210;SDS011;50528;48.514;14.394;2023-04-24T02:14:06;2.90;;;1.40;;
64210;SDS011;50528;48.514;14.394;2023-04-24T02:14:40;2.30;;;1.40;;
64210;SDS011;50528;48.514;14.394;2023-04-24T02:15:15;2.40;;;1.40;;
64210;SDS011;50528;48.514;14.394;2023-04-24T02:15:49;2.30;;;1.50;;
64210;SDS011;50528;48.514;14.394;2023-04-24T02:16:23;2.20;;;1.40;;
64210;SDS011;50528;48.514;14.394;2023-04-24T02:16:56;3.10;;;1.20;;
64210;SDS011;50528;48.514;14.394;2023-04-24T02:17:30;2.50;;;1.20;;
64210;SDS011;50528;48.514;14.394;2023-04-24T02:18:04;2.40;;;1.30;;
64210;SDS011;50528;48.514;14.394;2023-04-24T02:18:39;2.10;;;1.20;;
64210;SDS011;50528;48.514;14.394;2023-04-24T02:19:13;2.40;;;1.30;;
64210;SDS011;50528;48.514;14.394;2023-04-24T02:19:46;2.10;;;1.30;;
64210;SDS011;50528;48.514;14.394;2023-04-24T02:20:20;3.10;;;1.40;;
64210;SDS011;50528;48.514;14.394;2023-04-24T02:20:54;2.10;;;1.40;;
64210;SDS011;50528;48.514;14.394;2023-04-24T02:21:27;2.20;;;1.40;;
64210;SDS011;50528;48.514;14.394;2023-04-24T02:22:01;2.10;;;1.20;;
64210;SDS011;50528;48.514;14.394;2023-04-24T02:22:34;2.30;;;1.20;;
64210;SDS011;50528;48.514;14.394;2023-04-24T02:23:08;2.40;;;1.20;;
64210;SDS011;50528;48.514;14.394;2023-04-24T02:23:41;1.80;;;1.10;;
64210;SDS011;50528;48.514;14.394;2023-04-24T02:24:18;2.50;;;1.20;;
64210;SDS011;50528;48.514;14.394;2023-04-24T02:24:51;2.00;;;1.20;;
64210;SDS011;50528;48.514;14.394;2023-04-24T02:25:25;2.00;;;1.10;;
64210;SDS011;50528;48.514;14.394;2023-04-24T02:26:00;1.80;;;1.10;;
64210;SDS011;50528;48.514;14.394;2023-04-24T02:26:33;2.20;;;1.30;;
64210;SDS011;50528;48.514;14.394;2023-04-24T02:27:07;2.20;;;1.10;;
64210;SDS011;50528;48.514;14.394;2023-04-24T02:27:40;2.20;;;1.10;;
64210;SDS011;50528;48.514;14.394;2023-04-24T02:28:14;1.90;;;1.10;;
64210;SDS011;50528;48.514;14.394;2023-04-24T02:28:48;3.00;;;1.10;;
64210;SDS011;50528;48.514;14.394;2023-04-24T02:29:21;2.00;;;1.20;;
64210;SDS011;50528;48.514;14.394;2023-04-24T02:30:15;2.40;;;1.30;;
64210;SDS011;50528;48.514;14.394;2023-04-24T02:30:51;3.50;;;1.10;;
64210;SDS011;50528;48.514;14.394;2023-04-24T02:31:46;2.20;;;1.10;;
64210;SDS011;50528;48.514;14.394;2023-04-24T02:32:19;2.00;;;1.20;;
64210;SDS011;50528;48.514;14.394;2023-04-24T02:32:53;3.60;;;1.20;;
64210;SDS011;50528;48.514;14.394;2023-04-24T02:33:26;2.00;;;1.20;;
64210;SDS011;50528;48.514;14.394;2023-04-24T02:33:59;2.10;;;1.30;;
64210;SDS011;50528;48.514;14.394;2023-04-24T02:34:33;1.90;;;1.10;;
64210;SDS011;50528;48.514;14.394;2023-04-24T02:35:07;2.70;;;1.30;;
64210;SDS011;50528;48.514;14.394;2023-04-24T02:35:53;3.00;;;1.10;;
64210;SDS011;50528;48.514;14.394;2023-04-24T02:36:26;2.00;;;1.20;;
64210;SDS011;50528;48.514;14.394;2023-04-24T02:37:00;2.00;;;1.10;;
64210;SDS011;50528;48.514;14.394;2023-04-24T02:37:33;2.20;;;1.20;;
64210;SDS011;50528;48.514;14.394;2023-04-24T02:38:07;1.70;;;1.20;;
64210;SDS011;50528;48.514;14.394;2023-04-24T02:38:41;2.50;;;1.30;;
64210;SDS011;50528;48.514;14.394;2023-04-24T02:39:15;2.60;;;1.20;;
64210;SDS011;50528;48.514;14.394;2023-04-24T02:39:51;3.70;;;1.40;;
64210;SDS011;50528;48.514;14.394;2023-04-24T02:40:25;3.40;;;1.20;;
64210;SDS011;50528;48.514;14.394;2023-04-24T02:40:58;3.10;;;1.30;;
64210;SDS011;50528;48.514;14.394;2023-04-24T02:41:33;3.10;;;1.20;;
64210;SDS011;50528;48.514;14.394;2023-04-24T02:42:07;3.20;;;1.40;;
64210;SDS011;50528;48.514;14.394;2023-04-24T02:42:40;1.90;;;1.10;;
64210;SDS011;50528;48.514;14.394;2023-04-24T02:43:14;2.10;;;1.20;;
64210;SDS011;50528;48.514;14.394;2023-04-24T02:43:48;2.30;;;1.20;;
64210;SDS011;50528;48.514;14.394;2023-04-24T02:44:21;2.60;;;1.30;;
64210;SDS011;50528;48.514;14.394;2023-04-24T02:44:55;2.20;;;1.10;;
64210;SDS011;50528;48.514;14.394;2023-04-24T02:45:29;2.70;;;1.30;;
64210;SDS011;50528;48.514;14.394;2023-04-24T02:46:02;2.70;;;1.10;;
64210;SDS011;50528;48.514;14.394;2023-04-24T02:46:36;1.90;;;1.10;;
64210;SDS011;50528;48.514;14.394;2023-04-24T02:47:10;1.80;;;1.20;;
64210;SDS011;50528;48.514;14.394;2023-04-24T02:47:46;3.30;;;1.10;;
64210;SDS011;50528;48.514;14.394;2023-04-24T02:48:19;2.20;;;1.40;;
64210;SDS011;50528;48.514;14.394;2023-04-24T02:48:53;2.40;;;1.10;;
64210;SDS011;50528;48.514;14.394;2023-04-24T02:49:27;2.50;;;1.20;;
64210;SDS011;50528;48.514;14.394;2023-04-24T02:50:02;3.00;;;1.30;;
64210;SDS011;50528;48.514;14.394;2023-04-24T02:50:37;2.00;;;1.20;;
64210;SDS011;50528;48.514;14.394;2023-04-24T02:51:11;1.90;;;1.10;;
64210;SDS011;50528;48.514;14.394;2023-04-24T02:51:44;2.60;;;1.30;;
64210;SDS011;50528;48.514;14.394;2023-04-24T02:52:20;2.30;;;1.30;;
64210;SDS011;50528;48.514;14.394;2023-04-24T02:52:53;2.30;;;1.20;;
64210;SDS011;50528;48.514;14.394;2023-04-24T02:53:27;1.80;;;1.10;;
64210;SDS011;50528;48.514;14.394;2023-04-24T02:54:02;2.20;;;1.30;;
64210;SDS011;50528;48.514;14.394;2023-04-24T02:54:36;2.70;;;1.30;;
64210;SDS011;50528;48.514;14.394;2023-04-24T02:55:09;2.30;;;1.20;;
64210;SDS011;50528;48.514;14.394;2023-04-24T02:55:42;1.90;;;1.20;;
64210;SDS011;50528;48.514;14.394;2023-04-24T02:56:16;2.70;;;1.40;;
64210;SDS011;50528;48.514;14.394;2023-04-24T02:56:49;2.40;;;1.40;;
64210;SDS011;50528;48.514;14.394;2023-04-24T02:57:23;2.70;;;1.30;;
64210;SDS011;50528;48.514;14.394;2023-04-24T02:57:56;2.50;;;1.40;;
64210;SDS011;50528;48.514;14.394;2023-04-24T02:58:30;2.70;;;1.40;;
64210;SDS011;50528;48.514;14.394;2023-04-24T02:59:03;3.20;;;1.60;;
64210;SDS011;50528;48.514;14.394;2023-04-24T02:59:37;2.30;;;1.50;;
64210;SDS011;50528;48.514;14.394;2023-04-24T03:00:10;2.30;;;1.60;;
64210;SDS011;50528;48.514;14.394;2023-04-24T03:00:45;2.40;;;1.50;;
64210;SDS011;50528;48.514;14.394;2023-04-24T03:01:20;2.50;;;1.50;;
64210;SDS011;50528;48.514;14.394;2023-04-24T03:01:53;2.90;;;1.40;;
64210;SDS011;50528;48.514;14.394;2023-04-24T03:02:26;2.40;;;1.50;;
64210;SDS011;50528;48.514;14.394;2023-04-24T03:03:00;3.70;;;1.70;;
64210;SDS011;50528;48.514;14.394;2023-04-24T03:03:34;3.20;;;1.60;;
64210;SDS011;50528;48.514;14.394;2023-04-24T03:04:08;2.50;;;1.70;;
64210;SDS011;50528;48.514;14.394;2023-04-24T03:04:42;2.50;;;1.50;;
64210;SDS011;50528;48.514;14.394;2023-04-24T03:05:16;3.90;;;1.70;;
64210;SDS011;50528;48.514;14.394;2023-04-24T03:05:49;2.60;;;1.80;;
64210;SDS011;50528;48.514;14.394;2023-04-24T03:06:23;2.40;;;1.70;;
64210;SDS011;50528;48.514;14.394;2023-04-24T03:06:57;3.10;;;2.10;;
64210;SDS011;50528;48.514;14.394;2023-04-24T03:07:31;3.60;;;1.70;;
64210;SDS011;50528;48.514;14.394;2023-04-24T03:08:05;3.40;;;1.70;;
64210;SDS011;50528;48.514;14.394;2023-04-24T03:08:39;3.10;;;1.90;;
64210;SDS011;50528;48.514;14.394;2023-04-24T03:09:12;2.80;;;1.70;;
64210;SDS011;50528;48.514;14.394;2023-04-24T03:09:46;2.70;;;1.80;;
64210;SDS011;50528;48.514;14.394;2023-04-24T03:10:20;2.50;;;1.80;;
64210;SDS011;50528;48.514;14.394;2023-04-24T03:10:55;3.10;;;1.70;;
64210;SDS011;50528;48.514;14.394;2023-04-24T03:11:29;3.10;;;1.60;;
64210;SDS011;50528;48.514;14.394;2023-04-24T03:12:02;3.20;;;1.90;;
64210;SDS011;50528;48.514;14.394;2023-04-24T03:12:36;2.70;;;1.70;;
64210;SDS011;50528;48.514;14.394;2023-04-24T03:13:09;3.00;;;1.80;;
64210;SDS011;50528;48.514;14.394;2023-04-24T03:13:43;3.20;;;1.70;;
64210;SDS011;50528;48.514;14.394;2023-04-24T03:14:17;3.20;;;1.60;;
64210;SDS011;50528;48.514;14.394;2023-04-24T03:14:50;3.50;;;1.70;;
64210;SDS011;50528;48.514;14.394;2023-04-24T03:15:24;3.80;;;1.80;;
64210;SDS011;50528;48.514;14.394;2023-04-24T03:15:58;2.60;;;1.70;;
64210;SDS011;50528;48.514;14.394;2023-04-24T03:16:33;2.40;;;1.60;;
64210;SDS011;50528;48.514;14.394;2023-04-24T03:17:06;2.40;;;1.70;;
64210;SDS011;50528;48.514;14.394;2023-04-24T03:17:40;2.80;;;1.60;;
64210;SDS011;50528;48.514;14.394;2023-04-24T03:18:13;2.90;;;1.60;;
64210;SDS011;50528;48.514;14.394;2023-04-24T03:18:47;3.60;;;1.80;;
64210;SDS011;50528;48.514;14.394;2023-04-24T03:19:21;4.00;;;1.70;;
64210;SDS011;50528;48.514;14.394;2023-04-24T03:20:02;4.10;;;1.70;;
64210;SDS011;50528;48.514;14.394;2023-04-24T03:20:40;4.00;;;1.80;;
64210;SDS011;50528;48.514;14.394;2023-04-24T03:21:13;2.50;;;1.60;;
64210;SDS011;50528;48.514;14.394;2023-04-24T03:21:47;5.10;;;1.80;;
64210;SDS011;50528;48.514;14.394;2023-04-24T03:22:21;3.40;;;1.70;;
64210;SDS011;50528;48.514;14.394;2023-04-24T03:22:55;3.60;;;1.80;;
64210;SDS011;50528;48.514;14.394;2023-04-24T03:23:30;2.70;;;1.90;;
64210;SDS011;50528;48.514;14.394;2023-04-24T03:24:04;3.40;;;1.70;;
64210;SDS011;50528;48.514;14.394;2023-04-24T03:24:37;3.10;;;1.70;;
64210;SDS011;50528;48.514;14.394;2023-04-24T03:25:10;2.60;;;1.80;;